Aviation Digital Data Service (ADDS)

Output produced by METARs form (1707 UTC 24 April 2017)
found at http://www.aviationweather.gov/adds/metars/
 
GABS 241630Z 18005KT 9999 FEW030 40/09 Q1008 NOSIG
TAF GABS 241100Z 2412/2518 22010KT 9999 FEW030 
     PROB40 
     TEMPO 2414/2424 VRB20G30KT 2000 BLDU TSRA SCT030 FEW040CB 
     PROB30 
     TEMPO 2504/2510 VRB15G30KT -TSRA SCT030 FEW040CB
       
TAF GAGO 241100Z 2412/2512 32010KT 8000 NSC 
     BECMG 2416/2418 25010KT 
     PROB30 
     TEMPO 2418/2423 TS SCT040 FEW050CB
       
GAKY 241200Z 04006KT 320V080 CAVOK 39/10 Q1012
GABS 241630Z 18005KT 9999 FEW030 40/09 Q1008 NOSIG
TAF GABS 241100Z 2412/2518 22010KT 9999 FEW030 
     PROB40 
     TEMPO 2414/2424 VRB20G30KT 2000 BLDU TSRA SCT030 FEW040CB 
     PROB30 
     TEMPO 2504/2510 VRB15G30KT -TSRA SCT030 FEW040CB
       
TAF GAGO 241100Z 2412/2512 32010KT 8000 NSC 
     BECMG 2416/2418 25010KT 
     PROB30 
     TEMPO 2418/2423 TS SCT040 FEW050CB
       
GAKY 241200Z 04006KT 320V080 CAVOK 39/10 Q1012
GAMB 241500Z 22004KT 9999 SCT030 40/17 Q1008
GANR 241500Z 32004KT CAVOK 40/07 Q1010
GAMB 241500Z 22004KT 9999 SCT030 40/17 Q1008
GANR 241500Z 32004KT CAVOK 40/07 Q1010